Airfield :
LOGIN :

Register | Disclaimer

   EN    FR    IT 

 










Legend :    VFR   Marginal VFR   IFR   Intensive IFR   Very Intensive IFR
Visi :
Ceiling :
>= 8 km
>= 3000ft
5 to 8 km
1000 to 3000 ft
1500m to 5 km
500 to 1000 ft
800 to 1500m
200 to 500 ft
< 800m
< 200 ft
Symbols :   Thunderstorms  Fog  Heavy snow  Heavy precipitations  Wind > 20 kt
SIGMETs :     Misc.  Thunderstorms  Icing  Turbulence  Mountain Waves  Volcanic Ashes






- Airport Elevation : 1475 ft


LSZC - Buochs Stans

CURRENT METAR :
  • 240450Z AUTO 27003KT 8000 SCT039 BKN055 03/02 Q1013

EXPIRED METARs :
  • 240420Z AUTO 26002KT 9000 FEW045 OVC060 03/01 Q1013
  • 240350Z AUTO VRB02KT 8000 BKN046 03/02 Q1013
  • 240320Z AUTO 22002KT 9999 BKN050 03/02 Q1013
  • 240250Z AUTO VRB02KT 8000 OVC050 02/02 Q1013 REDZ
  • 240220Z AUTO 23003KT 5000 BKN050 02/02 Q1013 REDZ
  • 240150Z AUTO VRB02KT 6000 SCT055 BKN065 02/02 Q1014
  • 240120Z AUTO 26003KT 9000 -RA BKN055 03/01 Q1014 REDZ
  • 240050Z AUTO VRB03KT 8000 -DZ FEW012 OVC055 03/02 Q1014
  • 240020Z AUTO VRB03KT 7000 -RA BKN013 03/02 Q1014 REDZ

TAF TAF LSZC
Valid from the 24 at 03:00 until the 24 at 12:00 UTC


240225Z 2403/2412 VRB02KT 6000 SCT050 BKN060
BECMG 2410/2412 22010KT
TEMPO 2410/2412 SHRA FEW040TCU



MET'MAP, your aeronautical weather chart ! - Copyright ORBIFLY December 2007 - Disclaimer

ORBIFLY MET'MAP TEAM :

Programming & Development : Alexandra Zaïnal
Original concept : Baudouin d'Aumeries
Technical & hardware support : Manuel Goepfert
Assistance : Marc-Olivier Méhu




SOURCES & CREDITS :

   NOAA